Time;durP1;ratioP1;P1;durP2;ratioP2;P2;SDS_P1;SDS_P2;PMS_P1;PMS_P2;Temp;Humidity;BMP_temperature;BMP_pressure;BME280_temperature;BME280_humidity;BME280_pressure;Samples;Min_cycle;Max_cycle;Signal;HPM_P1;HPM_P2
2022/11/04 00:01:20;;;;;;;45.17;28.02;;;11.10;99.90;;;;;;5108903;28;20130;-83
2022/11/04 00:03:46;;;;;;;43.72;25.42;;;11.10;99.90;;;;;;5109603;28;20131;-82
2022/11/04 00:06:12;;;;;;;43.72;25.75;;;11.10;99.90;;;;;;5076588;28;20039;-82
2022/11/04 00:08:37;;;;;;;38.88;24.05;;;11.10;99.90;;;;;;5105244;28;20039;-82
2022/11/04 00:13:47;;;;;;;36.70;22.98;;;11.10;99.90;;;;;;5120892;27;20082;-83
2022/11/04 00:19:02;;;;;;;27.73;19.80;;;11.00;99.90;;;;;;5124988;27;20072;-82
2022/11/04 00:29:43;;;;;;;29.73;18.88;;;10.90;99.90;;;;;;5107406;28;20051;-82
2022/11/04 00:34:53;;;;;;;14.50;10.85;;;10.90;99.90;;;;;;5095067;28;20048;-82
2022/11/04 00:37:19;;;;;;;11.98;8.95;;;10.90;99.90;;;;;;5108852;28;20168;-82
2022/11/04 00:39:45;;;;;;;12.02;9.52;;;10.80;99.90;;;;;;5078228;28;20044;-82
2022/11/04 00:42:11;;;;;;;12.70;8.93;;;10.70;99.90;;;;;;5092465;28;20036;-82
2022/11/04 00:44:36;;;;;;;9.07;7.30;;;10.70;99.90;;;;;;5142855;27;20118;-82
2022/11/04 00:47:02;;;;;;;7.13;5.07;;;10.60;99.90;;;;;;5109093;28;20544;-82
2022/11/04 00:49:28;;;;;;;9.07;6.45;;;10.50;99.90;;;;;;5107656;28;20503;-82
2022/11/04 00:51:54;;;;;;;7.55;5.30;;;10.50;99.90;;;;;;5104619;28;20040;-83
2022/11/04 00:54:19;;;;;;;11.07;5.18;;;10.40;99.90;;;;;;5112855;28;20092;-82
2022/11/04 00:56:47;;;;;;;8.27;4.18;;;10.40;99.90;;;;;;5084102;28;20098;-83
2022/11/04 00:59:13;;;;;;;6.78;4.35;;;10.30;99.90;;;;;;5074651;28;20048;-83
2022/11/04 01:01:39;;;;;;;5.20;4.05;;;10.30;99.90;;;;;;5108698;28;20047;-82
2022/11/04 01:04:05;;;;;;;6.03;3.40;;;10.30;99.90;;;;;;5075487;28;20069;-81
2022/11/04 01:06:31;;;;;;;6.55;3.45;;;10.20;99.90;;;;;;5086025;28;20036;-82
2022/11/04 01:08:59;;;;;;;8.25;3.58;;;10.20;99.90;;;;;;5108131;28;20085;-82
2022/11/04 01:11:27;;;;;;;5.45;3.00;;;10.30;99.90;;;;;;5091786;28;20364;-83
2022/11/04 01:13:53;;;;;;;9.10;3.70;;;10.20;99.90;;;;;;5109415;28;20043;-82
2022/11/04 01:16:19;;;;;;;6.07;2.90;;;10.20;99.90;;;;;;5108499;28;20039;-82
2022/11/04 01:18:45;;;;;;;3.50;2.58;;;10.30;99.90;;;;;;5108097;28;20043;-82
2022/11/04 01:21:13;;;;;;;4.22;2.58;;;10.20;99.90;;;;;;5091110;28;20040;-82
2022/11/04 01:23:40;;;;;;;4.28;2.00;;;10.20;99.90;;;;;;5113636;28;20499;-82
2022/11/04 01:26:11;;;;;;;5.68;1.48;;;10.20;99.90;;;;;;5082648;28;20562;-82
2022/11/04 01:28:37;;;;;;;3.25;1.38;;;10.20;99.90;;;;;;5108857;28;20205;-82
2022/11/04 01:31:12;;;;;;;1.73;1.20;;;10.20;99.90;;;;;;5123070;28;20122;-82
2022/11/04 01:33:38;;;;;;;2.70;1.02;;;10.20;99.90;;;;;;5108535;28;20051;-82
2022/11/04 01:36:05;;;;;;;3.47;1.10;;;10.10;99.90;;;;;;5102612;27;20095;-82
2022/11/04 01:38:31;;;;;;;1.75;0.90;;;10.10;99.90;;;;;;5095271;28;20039;-83
2022/11/04 01:40:57;;;;;;;3.17;0.95;;;10.10;99.90;;;;;;5109868;27;20048;-82
2022/11/04 01:43:49;;;;;;;3.35;0.88;;;10.00;99.90;;;;;;5593805;22;20073;-78
2022/11/04 01:46:36;;;;;;;1.70;0.82;;;10.00;99.90;;;;;;5010351;28;20099;-79
2022/11/04 01:49:32;;;;;;;4.72;0.88;;;10.00;99.90;;;;;;5023399;28;20161;-83
2022/11/04 01:52:10;;;;;;;3.88;0.73;;;9.90;99.90;;;;;;5022231;28;20128;-79
2022/11/04 01:54:37;;;;;;;7.18;1.13;;;9.90;99.90;;;;;;5029088;28;20046;-79
2022/11/04 01:57:06;;;;;;;3.70;1.20;;;9.90;99.90;;;;;;5045666;28;20053;-78
2022/11/04 01:59:35;;;;;;;2.60;0.90;;;9.90;99.90;;;;;;5045068;28;20099;-83
2022/11/04 02:02:02;;;;;;;1.90;0.80;;;10.00;99.90;;;;;;5046677;28;20698;-81
2022/11/04 02:04:29;;;;;;;4.55;1.13;;;10.00;99.90;;;;;;5031019;28;20045;-79
2022/11/04 02:06:58;;;;;;;3.50;1.27;;;10.00;99.90;;;;;;5020097;28;20151;-78
2022/11/04 02:09:26;;;;;;;6.85;1.60;;;9.90;99.90;;;;;;5020168;28;20045;-78
2022/11/04 02:14:37;;;;;;;3.13;1.05;;;10.00;99.90;;;;;;5023638;28;20042;-81
2022/11/04 02:17:13;;;;;;;3.78;0.93;;;10.00;99.90;;;;;;5023674;28;20049;-78
2022/11/04 02:20:04;;;;;;;3.28;1.15;;;10.00;99.90;;;;;;5022397;28;20053;-79
2022/11/04 02:22:48;;;;;;;2.88;1.13;;;10.00;99.90;;;;;;5030555;28;20034;-78
2022/11/04 02:25:58;;;;;;;5.60;1.33;;;10.00;99.90;;;;;;5030116;28;20045;-78
2022/11/04 02:28:35;;;;;;;7.78;0.93;;;10.00;99.90;;;;;;5024219;28;20045;-78
2022/11/04 02:31:16;;;;;;;3.70;1.30;;;10.00;99.90;;;;;;5013712;28;20045;-81
2022/11/04 02:33:52;;;;;;;3.40;0.98;;;10.00;99.90;;;;;;5019076;28;20066;-78
2022/11/04 02:36:32;;;;;;;4.78;1.10;;;10.00;99.90;;;;;;5029359;28;20049;-78
2022/11/04 02:39:23;;;;;;;7.38;0.60;;;10.00;99.90;;;;;;5012000;28;20451;-79
2022/11/04 02:42:11;;;;;;;2.65;0.60;;;10.00;99.90;;;;;;5031949;28;20049;-79
2022/11/04 02:44:45;;;;;;;1.10;0.55;;;10.00;99.90;;;;;;5023070;28;20060;-84
2022/11/04 02:47:16;;;;;;;1.67;0.40;;;9.90;99.90;;;;;;5017516;28;20048;-78
2022/11/04 02:50:06;;;;;;;2.25;0.60;;;10.00;99.90;;;;;;5041619;28;20069;-82
2022/11/04 02:52:48;;;;;;;0.95;0.30;;;10.00;99.90;;;;;;5037702;28;20072;-80
2022/11/04 02:55:38;;;;;;;2.28;0.30;;;9.90;99.90;;;;;;5030230;28;20049;-79
2022/11/04 02:58:09;;;;;;;1.30;0.38;;;10.00;99.90;;;;;;5033752;28;20046;-78
2022/11/04 03:00:38;;;;;;;1.00;0.30;;;10.00;99.90;;;;;;5039017;28;20124;-78
2022/11/04 03:03:11;;;;;;;1.85;0.40;;;10.00;99.90;;;;;;5027579;28;20084;-78
2022/11/04 03:05:41;;;;;;;3.10;0.30;;;10.00;99.90;;;;;;5026944;28;20057;-83
2022/11/04 03:08:20;;;;;;;3.08;0.40;;;10.00;99.90;;;;;;5026909;28;20041;-82
2022/11/04 03:10:51;;;;;;;0.80;0.30;;;10.00;99.90;;;;;;5009597;28;20077;-78
2022/11/04 03:13:31;;;;;;;1.10;0.38;;;10.00;99.90;;;;;;5024573;28;20553;-81
2022/11/04 03:16:00;;;;;;;1.48;0.40;;;10.00;99.90;;;;;;5016979;28;20053;-80
2022/11/04 03:19:07;;;;;;;1.35;0.40;;;10.00;99.90;;;;;;5045663;28;20146;-81
2022/11/04 03:21:37;;;;;;;2.28;0.60;;;10.00;99.90;;;;;;4966159;28;20471;-81
2022/11/04 03:24:03;;;;;;;5.13;0.90;;;10.00;99.90;;;;;;4956880;28;20049;-80
2022/11/04 03:26:38;;;;;;;2.92;1.13;;;10.00;99.90;;;;;;4999026;28;20052;-80
2022/11/04 03:29:29;;;;;;;2.08;0.95;;;10.00;99.90;;;;;;5044648;28;20121;-80
2022/11/04 03:32:07;;;;;;;3.08;1.33;;;10.00;99.90;;;;;;5035642;28;20041;-80
2022/11/04 03:34:33;;;;;;;5.40;1.80;;;10.00;99.90;;;;;;5014214;28;20046;-80
2022/11/04 03:36:59;;;;;;;3.78;1.70;;;10.00;99.90;;;;;;5009468;28;20542;-80
2022/11/04 03:39:25;;;;;;;7.22;1.88;;;10.10;99.90;;;;;;5011863;28;20088;-81
2022/11/04 03:42:02;;;;;;;5.90;2.08;;;10.10;99.90;;;;;;5017469;28;20045;-79
2022/11/04 03:44:29;;;;;;;8.32;2.63;;;10.10;99.90;;;;;;5025603;28;20057;-79
2022/11/04 03:46:54;;;;;;;9.48;2.42;;;10.10;99.90;;;;;;5022716;28;20095;-79
2022/11/04 03:49:22;;;;;;;4.65;2.60;;;10.10;99.90;;;;;;5044731;28;20041;-80
2022/11/04 03:51:51;;;;;;;4.82;2.53;;;10.20;99.90;;;;;;5012800;28;20059;-85
2022/11/04 03:54:18;;;;;;;7.22;2.30;;;10.10;99.90;;;;;;5013499;28;20049;-82
2022/11/04 03:57:21;;;;;;;3.95;1.92;;;10.20;99.90;;;;;;4997495;28;20109;-80
2022/11/04 03:59:55;;;;;;;5.00;1.60;;;10.20;99.90;;;;;;5006966;28;20040;-84
2022/11/04 04:02:25;;;;;;;3.47;0.82;;;10.10;99.90;;;;;;5030358;28;20055;-79
2022/11/04 04:05:08;;;;;;;5.68;0.80;;;10.10;99.90;;;;;;5013074;28;20049;-80
2022/11/04 04:07:44;;;;;;;0.70;0.50;;;9.90;99.90;;;;;;5046319;28;20045;-80
2022/11/04 04:13:04;;;;;;;2.92;0.55;;;9.70;99.90;;;;;;5037873;28;20053;-79
2022/11/04 04:15:41;;;;;;;3.35;0.68;;;9.60;99.90;;;;;;5044307;28;20045;-79
2022/11/04 04:18:12;;;;;;;2.78;0.52;;;9.60;99.90;;;;;;5022006;28;20052;-80
2022/11/04 04:20:39;;;;;;;1.80;0.75;;;9.60;99.90;;;;;;5012030;28;20144;-81
2022/11/04 04:28:42;;;;;;;1.52;0.50;;;9.60;99.90;;;;;;5035943;28;20053;-80
2022/11/04 04:31:11;;;;;;;1.80;0.43;;;9.50;99.90;;;;;;5005247;28;20050;-80
2022/11/04 04:33:37;;;;;;;0.93;0.50;;;9.50;99.90;;;;;;5011030;28;20056;-79
2022/11/04 04:36:06;;;;;;;0.77;0.40;;;9.50;99.90;;;;;;5028496;28;20041;-79
2022/11/04 04:47:20;;;;;;;1.35;0.60;;;9.50;99.90;;;;;;5019049;28;20065;-83
2022/11/04 04:49:50;;;;;;;2.00;0.52;;;9.50;99.90;;;;;;5009599;28;20053;-81
2022/11/04 04:52:16;;;;;;;2.55;0.85;;;9.50;99.90;;;;;;5041109;28;20517;-79
2022/11/04 04:54:41;;;;;;;3.90;0.70;;;9.50;99.90;;;;;;5028365;28;20136;-81
2022/11/04 04:57:07;;;;;;;1.92;0.40;;;9.50;99.90;;;;;;4993161;28;20088;-80
2022/11/04 04:59:33;;;;;;;3.83;0.70;;;9.60;99.90;;;;;;5009460;28;20053;-80
2022/11/04 05:01:58;;;;;;;4.22;0.57;;;9.60;99.90;;;;;;5026186;28;20076;-80
2022/11/04 05:04:24;;;;;;;4.03;0.60;;;9.60;99.90;;;;;;5025963;28;20120;-80
2022/11/04 05:06:50;;;;;;;1.77;0.50;;;9.60;99.90;;;;;;5015039;28;20470;-80
2022/11/04 05:09:15;;;;;;;4.22;0.65;;;9.50;99.90;;;;;;5010611;28;20692;-79
2022/11/04 05:11:41;;;;;;;3.58;0.40;;;9.50;99.90;;;;;;4995639;28;20497;-81
2022/11/04 05:14:06;;;;;;;2.40;0.68;;;9.40;99.90;;;;;;4996795;28;20076;-79
2022/11/04 05:16:32;;;;;;;3.33;0.68;;;9.40;99.90;;;;;;5011846;28;20057;-79
2022/11/04 05:18:58;;;;;;;4.80;0.60;;;9.40;99.90;;;;;;5026250;28;20463;-85
2022/11/04 05:21:23;;;;;;;6.60;1.25;;;9.40;99.90;;;;;;5011046;28;20041;-78
2022/11/04 05:23:49;;;;;;;3.88;0.70;;;9.30;99.90;;;;;;5007059;28;20491;-78
2022/11/04 05:26:14;;;;;;;5.38;0.90;;;9.30;99.90;;;;;;5015250;28;20495;-79
2022/11/04 05:28:40;;;;;;;2.38;0.70;;;9.30;99.90;;;;;;4999656;28;20045;-79
2022/11/04 05:31:06;;;;;;;2.30;0.65;;;9.30;99.90;;;;;;5024868;28;20049;-78
2022/11/04 05:33:32;;;;;;;3.00;0.73;;;9.30;99.90;;;;;;5010236;28;20061;-82
2022/11/04 05:36:12;;;;;;;6.53;1.00;;;9.20;99.90;;;;;;5013261;28;20050;-79
2022/11/04 05:38:38;;;;;;;4.57;0.70;;;9.20;99.90;;;;;;5013742;28;20058;-81
2022/11/04 05:41:05;;;;;;;1.80;0.70;;;9.20;99.90;;;;;;5032244;28;20049;-77
2022/11/04 05:43:31;;;;;;;5.45;0.80;;;9.30;99.90;;;;;;5049642;28;20075;-79
2022/11/04 05:45:58;;;;;;;2.45;0.57;;;9.20;99.90;;;;;;5028596;28;20049;-79
2022/11/04 05:48:24;;;;;;;3.63;0.73;;;9.30;99.90;;;;;;5027412;28;20103;-79
2022/11/04 05:50:50;;;;;;;2.10;0.90;;;9.30;99.90;;;;;;5017786;28;20041;-79
2022/11/04 05:53:15;;;;;;;5.13;1.00;;;9.20;99.90;;;;;;5017436;28;20049;-78
2022/11/04 05:55:41;;;;;;;3.92;1.02;;;9.20;99.90;;;;;;5007374;28;20653;-79
2022/11/04 05:58:07;;;;;;;3.65;0.95;;;9.10;99.90;;;;;;5019763;28;20057;-79
2022/11/04 06:00:32;;;;;;;2.40;0.90;;;9.10;99.90;;;;;;5012133;28;20161;-79
2022/11/04 06:02:58;;;;;;;5.32;1.00;;;9.10;99.90;;;;;;5008181;28;20073;-78
2022/11/04 06:05:25;;;;;;;2.72;0.90;;;9.10;99.90;;;;;;5024411;28;20052;-78
2022/11/04 06:07:51;;;;;;;5.05;1.00;;;9.00;99.90;;;;;;5025279;28;20045;-78
2022/11/04 06:10:16;;;;;;;3.08;1.00;;;9.00;99.90;;;;;;5013073;28;20050;-78
2022/11/04 06:12:42;;;;;;;1.98;1.02;;;8.90;99.90;;;;;;5023850;28;20045;-79
2022/11/04 06:15:08;;;;;;;5.93;0.90;;;8.80;99.90;;;;;;5000388;28;20140;-82
2022/11/04 06:17:34;;;;;;;4.30;1.00;;;8.70;99.90;;;;;;5011674;28;20053;-79
2022/11/04 06:19:59;;;;;;;4.28;0.95;;;8.70;99.90;;;;;;5019948;28;20057;-78
2022/11/04 06:22:25;;;;;;;6.18;1.02;;;8.60;99.90;;;;;;4995243;28;20046;-80
2022/11/04 06:24:51;;;;;;;5.65;1.23;;;8.60;99.90;;;;;;5016442;28;20046;-81
2022/11/04 06:27:16;;;;;;;3.63;1.33;;;8.50;99.90;;;;;;5012598;28;20050;-79
2022/11/04 06:29:42;;;;;;;4.43;1.00;;;8.40;99.90;;;;;;5014100;28;20092;-81
2022/11/04 06:32:09;;;;;;;3.63;1.20;;;8.40;99.90;;;;;;5045225;28;20047;-85
2022/11/04 06:34:35;;;;;;;4.68;1.20;;;8.30;99.90;;;;;;5025939;28;20088;-80
2022/11/04 06:37:01;;;;;;;3.35;1.00;;;8.30;99.90;;;;;;5012563;28;20038;-80
2022/11/04 06:39:27;;;;;;;5.60;1.30;;;8.30;99.90;;;;;;5009445;28;20055;-82
2022/11/04 06:41:52;;;;;;;3.72;1.15;;;8.30;99.90;;;;;;5026362;28;20054;-80
2022/11/04 06:44:18;;;;;;;6.95;1.38;;;8.20;99.90;;;;;;5011163;28;20088;-80
2022/11/04 06:46:44;;;;;;;3.53;1.13;;;8.20;99.90;;;;;;5030511;28;20052;-78
2022/11/04 06:49:18;;;;;;;3.90;1.08;;;8.10;99.90;;;;;;5038264;28;20048;-89
2022/11/04 06:51:45;;;;;;;4.05;1.30;;;8.10;99.90;;;;;;5019274;28;20402;-79
2022/11/04 06:54:11;;;;;;;3.63;1.20;;;8.10;99.90;;;;;;5030775;28;20057;-87
2022/11/04 06:56:37;;;;;;;5.38;1.70;;;8.10;99.90;;;;;;5041074;28;20049;-80
2022/11/04 06:59:03;;;;;;;4.32;1.90;;;8.10;99.90;;;;;;5012018;28;20045;-81
2022/11/04 07:01:32;;;;;;;8.10;1.73;;;8.20;99.90;;;;;;5031592;28;20102;-82
2022/11/04 07:03:59;;;;;;;5.68;1.92;;;8.20;99.90;;;;;;5032488;28;20136;-80
2022/11/04 07:06:25;;;;;;;3.92;1.52;;;8.30;99.90;;;;;;5006780;28;20128;-80
2022/11/04 07:08:52;;;;;;;5.45;1.67;;;8.30;99.90;;;;;;5029281;28;20042;-81
2022/11/04 07:11:21;;;;;;;5.10;1.58;;;8.30;99.90;;;;;;5010855;28;20053;-80
2022/11/04 07:13:47;;;;;;;3.92;1.35;;;8.40;99.90;;;;;;5029625;28;20768;-81
2022/11/04 07:16:14;;;;;;;2.85;1.40;;;8.40;99.90;;;;;;4993511;28;20050;-87
2022/11/04 07:18:40;;;;;;;4.88;1.50;;;8.40;99.90;;;;;;5030483;28;20037;-80
2022/11/04 07:21:06;;;;;;;3.30;1.42;;;8.40;99.90;;;;;;5029054;28;20129;-80
2022/11/04 07:23:31;;;;;;;4.50;1.55;;;8.40;99.90;;;;;;5043222;28;20048;-81
2022/11/04 07:26:02;;;;;;;5.32;1.42;;;8.40;99.90;;;;;;5015078;28;20065;-81
2022/11/04 07:28:28;;;;;;;4.32;1.48;;;8.30;99.90;;;;;;5028632;28;20045;-81
2022/11/04 07:30:58;;;;;;;3.58;1.80;;;8.20;99.90;;;;;;4994478;28;20053;-84
2022/11/04 07:33:25;;;;;;;5.65;1.50;;;8.20;99.90;;;;;;5024845;28;20053;-84
2022/11/04 07:35:52;;;;;;;7.55;1.85;;;8.20;99.90;;;;;;5020633;28;20067;-80
2022/11/04 07:38:21;;;;;;;3.47;1.63;;;8.20;99.90;;;;;;5026970;28;20473;-82
2022/11/04 07:40:47;;;;;;;4.63;1.80;;;8.20;99.90;;;;;;5042235;28;20041;-84
2022/11/04 07:43:13;;;;;;;3.10;1.65;;;8.20;99.90;;;;;;5048706;28;20041;-79
2022/11/04 07:45:39;;;;;;;4.88;1.50;;;8.20;99.90;;;;;;5026610;28;20087;-80
2022/11/04 07:48:05;;;;;;;5.18;1.60;;;8.10;99.90;;;;;;5024305;28;20044;-80
2022/11/04 07:50:31;;;;;;;5.50;1.80;;;8.10;99.90;;;;;;5032420;28;20127;-81
2022/11/04 07:52:58;;;;;;;4.35;1.80;;;8.10;99.90;;;;;;5035197;28;20480;-82
2022/11/04 07:55:24;;;;;;;5.97;1.70;;;8.20;99.90;;;;;;5034616;28;20143;-81
2022/11/04 07:57:50;;;;;;;7.45;1.65;;;8.20;99.90;;;;;;5027549;28;20037;-80
2022/11/04 08:00:16;;;;;;;2.65;1.90;;;8.20;99.90;;;;;;5030540;28;20048;-80
2022/11/04 08:02:45;;;;;;;7.20;1.60;;;8.30;99.90;;;;;;5026883;28;20061;-81
2022/11/04 08:05:14;;;;;;;4.78;1.90;;;8.30;99.90;;;;;;5036379;28;20534;-80
2022/11/04 08:07:41;;;;;;;7.30;2.08;;;8.30;99.90;;;;;;5029275;28;20045;-80
2022/11/04 08:10:07;;;;;;;7.03;1.90;;;8.30;99.90;;;;;;5037981;28;20079;-83
2022/11/04 08:12:33;;;;;;;4.15;1.75;;;8.30;99.90;;;;;;5032543;28;20114;-81
2022/11/04 08:14:59;;;;;;;3.28;1.77;;;8.40;99.90;;;;;;5026054;28;20045;-81
2022/11/04 08:17:25;;;;;;;3.67;1.90;;;8.40;99.90;;;;;;5018319;28;20072;-81
2022/11/04 08:19:51;;;;;;;6.60;1.70;;;8.40;99.90;;;;;;5035379;28;20402;-82
2022/11/04 08:22:17;;;;;;;3.42;1.55;;;8.40;99.90;;;;;;5007738;28;20045;-84
2022/11/04 08:24:42;;;;;;;4.75;1.48;;;8.50;99.90;;;;;;5036512;28;20053;-81
2022/11/04 08:27:09;;;;;;;6.47;2.03;;;8.50;99.90;;;;;;5027259;28;20052;-79
2022/11/04 08:29:35;;;;;;;4.70;1.70;;;8.50;99.90;;;;;;5027970;28;20060;-82
2022/11/04 08:32:01;;;;;;;3.60;1.70;;;8.50;99.90;;;;;;5024382;28;20041;-81
2022/11/04 08:34:27;;;;;;;3.67;1.55;;;8.60;99.90;;;;;;5004410;28;20060;-81
2022/11/04 08:36:54;;;;;;;7.20;2.50;;;8.60;99.90;;;;;;5008835;28;20099;-78
2022/11/04 08:39:20;;;;;;;5.18;1.60;;;8.60;99.90;;;;;;5022894;28;20491;-78
2022/11/04 08:41:46;;;;;;;3.97;1.90;;;8.60;99.90;;;;;;5018834;28;20042;-78
2022/11/04 08:44:13;;;;;;;5.00;1.65;;;8.70;99.90;;;;;;5018187;28;20057;-85
2022/11/04 08:46:40;;;;;;;4.72;1.70;;;8.70;99.90;;;;;;5025883;28;20946;-80
2022/11/04 08:49:06;;;;;;;3.80;2.20;;;8.80;99.90;;;;;;5030207;28;20045;-79
2022/11/04 08:51:34;;;;;;;3.83;1.90;;;8.80;99.90;;;;;;5028274;28;20095;-83
2022/11/04 08:54:00;;;;;;;4.57;1.80;;;8.80;99.90;;;;;;5032347;28;20403;-79
2022/11/04 08:56:28;;;;;;;3.17;1.75;;;8.90;99.90;;;;;;5030643;28;20483;-85
2022/11/04 08:58:57;;;;;;;2.33;1.38;;;9.00;99.90;;;;;;5036899;28;20184;-79
2022/11/04 09:01:23;;;;;;;4.45;1.75;;;9.00;99.90;;;;;;5026707;28;20053;-79
2022/11/04 09:03:49;;;;;;;5.03;1.52;;;9.00;99.90;;;;;;5029420;28;20184;-79
2022/11/04 09:06:26;;;;;;;5.70;1.90;;;9.10;99.90;;;;;;5032489;28;20479;-78
2022/11/04 09:08:54;;;;;;;3.30;1.52;;;9.10;99.90;;;;;;5029052;28;20076;-80
2022/11/04 09:11:20;;;;;;;6.55;1.60;;;9.10;99.90;;;;;;5023006;28;20033;-79
2022/11/04 09:13:46;;;;;;;3.90;1.80;;;9.20;99.90;;;;;;5013751;28;20502;-79
2022/11/04 09:16:13;;;;;;;5.45;1.65;;;9.30;99.90;;;;;;5027334;28;20048;-78
2022/11/04 09:18:39;;;;;;;4.43;1.48;;;9.40;99.90;;;;;;5022492;28;20056;-78
2022/11/04 09:21:07;;;;;;;6.03;1.48;;;9.40;99.90;;;;;;5018054;28;20187;-79
2022/11/04 09:23:33;;;;;;;8.30;1.80;;;9.50;99.90;;;;;;5040093;28;20041;-79
2022/11/04 09:26:11;;;;;;;6.18;1.60;;;9.50;99.90;;;;;;5034842;28;20037;-79
2022/11/04 09:28:36;;;;;;;3.30;1.77;;;9.60;99.90;;;;;;5027629;28;20475;-80
2022/11/04 09:31:07;;;;;;;2.50;1.60;;;9.70;99.90;;;;;;5026471;28;20052;-80
2022/11/04 09:33:33;;;;;;;5.35;1.50;;;9.80;99.90;;;;;;5025751;28;20046;-79
2022/11/04 09:35:59;;;;;;;5.03;2.05;;;9.90;99.90;;;;;;5022551;28;20053;-80
2022/11/04 09:38:25;;;;;;;5.13;1.67;;;9.90;99.90;;;;;;5005964;28;20517;-79
2022/11/04 09:40:51;;;;;;;3.42;1.48;;;9.90;99.90;;;;;;5034846;28;20128;-82
2022/11/04 09:43:50;;;;;;;5.40;1.70;;;9.90;99.90;;;;;;5033563;28;20076;-79
2022/11/04 09:46:16;;;;;;;7.35;2.08;;;9.90;99.90;;;;;;5030726;28;20052;-81
2022/11/04 09:48:52;;;;;;;5.28;2.20;;;10.00;99.90;;;;;;5032348;28;20048;-81
2022/11/04 09:51:20;;;;;;;;;;;10.20;99.90;;;;;;5016473;28;20075;-81
2022/11/04 09:53:50;;;;;;;7.95;2.85;;;10.40;99.90;;;;;;5031686;28;20274;-80
2022/11/04 09:56:36;;;;;;;4.75;2.40;;;10.60;99.90;;;;;;5027826;28;20091;-82
2022/11/04 09:59:03;;;;;;;7.63;3.05;;;10.50;99.90;;;;;;5017641;28;20184;-85
2022/11/04 10:01:56;;;;;;;4.53;2.40;;;10.50;99.90;;;;;;5029899;28;20052;-83
2022/11/04 10:04:34;;;;;;;7.05;3.10;;;10.50;99.90;;;;;;5046446;28;20107;-85
2022/11/04 10:07:41;;;;;;;4.90;2.85;;;10.60;99.90;;;;;;5029009;28;20048;-83
2022/11/04 10:10:24;;;;;;;;;;;10.80;99.90;;;;;;5014537;28;20037;-84
2022/11/04 10:13:16;;;;;;;8.35;4.00;;;11.00;99.90;;;;;;5008470;28;19925;-82
2022/11/04 10:16:03;;;;;;;7.28;4.68;;;11.30;99.90;;;;;;5030205;28;20050;-83
2022/11/04 10:18:58;;;;;;;6.20;4.38;;;11.40;99.90;;;;;;5028251;28;20037;-84
2022/11/04 10:21:41;;;;;;;9.88;6.18;;;11.50;99.90;;;;;;5034877;28;20049;-83
2022/11/04 10:24:35;;;;;;;9.73;6.63;;;11.30;99.90;;;;;;5019290;28;20107;-83
2022/11/04 10:27:14;;;;;;;15.38;7.43;;;11.30;99.90;;;;;;5029625;28;20033;-82
2022/11/04 10:29:41;;;;;;;13.63;7.00;;;11.40;99.90;;;;;;5028490;28;20041;-83
2022/11/04 10:32:34;;;;;;;12.45;7.10;;;11.40;99.90;;;;;;5026810;28;20051;-80
2022/11/04 10:35:25;;;;;;;11.55;5.80;;;11.30;99.90;;;;;;5012726;28;20056;-81
2022/11/04 10:37:53;;;;;;;7.60;5.00;;;11.10;99.90;;;;;;5005682;28;20050;-81
2022/11/04 10:40:22;;;;;;;8.65;5.30;;;10.90;99.90;;;;;;4996760;28;20037;-79
2022/11/04 10:42:50;;;;;;;10.30;5.72;;;10.70;99.90;;;;;;5006307;28;20483;-82
2022/11/04 10:45:21;;;;;;;9.50;6.35;;;10.60;99.90;;;;;;5026472;28;20167;-80
2022/11/04 10:48:07;;;;;;;10.55;6.50;;;10.70;99.90;;;;;;5012066;28;20049;-81
2022/11/04 10:50:49;;;;;;;11.35;6.15;;;10.80;99.90;;;;;;5027120;28;20053;-82
2022/11/04 10:53:22;;;;;;;10.10;6.22;;;10.80;99.90;;;;;;5009688;28;20057;-81
2022/11/04 10:56:09;;;;;;;10.90;6.63;;;10.80;99.90;;;;;;5031070;28;20045;-81
2022/11/04 10:58:41;;;;;;;10.75;5.18;;;11.00;99.90;;;;;;5036552;28;20513;-82
2022/11/04 11:01:29;;;;;;;8.98;5.70;;;11.10;99.90;;;;;;5008966;28;20583;-83
2022/11/04 11:03:56;;;;;;;10.38;5.00;;;11.20;99.90;;;;;;4990166;28;20518;-80
2022/11/04 11:06:31;;;;;;;8.23;4.70;;;11.20;99.90;;;;;;5014507;28;20862;-81
2022/11/04 11:09:11;;;;;;;6.18;4.00;;;11.20;99.90;;;;;;5031106;28;20075;-80
2022/11/04 11:12:12;;;;;;;8.15;3.80;;;11.30;99.90;;;;;;5037837;28;20049;-82
2022/11/04 11:14:39;;;;;;;8.82;4.20;;;11.50;99.90;;;;;;5017205;28;20052;-81
2022/11/04 11:17:32;;;;;;;10.25;4.07;;;11.60;99.90;;;;;;5020263;28;20046;-80
2022/11/04 11:20:07;;;;;;;9.23;4.47;;;11.60;99.90;;;;;;5032299;28;20119;-83
2022/11/04 11:22:46;;;;;;;5.25;3.80;;;11.60;99.90;;;;;;5026984;28;20136;-81
2022/11/04 11:25:27;;;;;;;13.70;4.70;;;11.70;99.90;;;;;;5012406;28;20052;-81
2022/11/04 11:28:04;;;;;;;11.98;3.92;;;11.70;99.90;;;;;;5027253;28;20053;-80
2022/11/04 11:30:33;;;;;;;6.57;2.90;;;11.70;99.90;;;;;;5012643;28;20129;-81
2022/11/04 11:33:23;;;;;;;5.13;2.47;;;11.80;99.90;;;;;;5031108;28;20053;-80
2022/11/04 11:36:16;;;;;;;7.22;2.42;;;11.80;99.90;;;;;;5039835;28;20038;-81
2022/11/04 11:39:15;;;;;;;5.45;2.38;;;11.70;99.90;;;;;;5017567;28;20060;-81
2022/11/04 11:42:11;;;;;;;8.20;3.03;;;11.40;99.90;;;;;;5017889;28;20054;-78
2022/11/04 11:44:45;;;;;;;6.23;2.27;;;11.10;99.90;;;;;;5018227;28;20055;-79
2022/11/04 11:47:22;;;;;;;5.70;2.17;;;11.10;99.90;;;;;;5009493;28;20042;-78
2022/11/04 11:50:08;;;;;;;7.03;2.67;;;11.30;99.90;;;;;;5021692;28;20053;-82
2022/11/04 11:52:38;;;;;;;7.25;2.10;;;11.50;99.90;;;;;;5002958;28;20045;-79
2022/11/04 11:55:19;;;;;;;4.65;1.80;;;11.60;99.90;;;;;;5025294;28;20049;-78
2022/11/04 11:57:59;;;;;;;5.13;1.20;;;11.60;99.90;;;;;;5034861;28;20045;-78
2022/11/04 12:00:31;;;;;;;7.43;1.45;;;11.80;99.90;;;;;;5010777;28;20052;-78
2022/11/04 12:03:19;;;;;;;6.30;1.75;;;11.90;99.90;;;;;;5011009;28;20199;-78
2022/11/04 12:06:13;;;;;;;5.07;1.88;;;11.90;99.90;;;;;;5015763;28;20053;-78
2022/11/04 12:09:03;;;;;;;5.43;1.90;;;11.80;99.90;;;;;;5021143;28;20128;-78
2022/11/04 12:11:41;;;;;;;4.40;1.30;;;11.60;99.90;;;;;;5035329;28;20513;-82
2022/11/04 12:14:45;;;;;;;4.07;1.50;;;11.40;99.90;;;;;;5024551;28;20106;-80
2022/11/04 12:17:22;;;;;;;4.20;1.25;;;11.10;99.90;;;;;;5027383;28;20372;-77
2022/11/04 12:19:54;;;;;;;5.20;0.70;;;10.70;99.90;;;;;;5028959;28;20057;-79
2022/11/04 12:22:34;;;;;;;6.30;1.23;;;10.50;99.90;;;;;;5025771;28;20129;-78
2022/11/04 12:25:11;;;;;;;4.72;0.65;;;10.40;99.90;;;;;;5025029;28;20551;-78
2022/11/04 12:28:03;;;;;;;5.15;0.80;;;10.20;99.90;;;;;;5045220;28;20495;-80
2022/11/04 12:31:04;;;;;;;3.42;0.85;;;10.10;99.90;;;;;;5048717;28;21416;-78
2022/11/04 12:33:36;;;;;;;4.78;0.88;;;10.10;99.90;;;;;;5033254;28;20508;-81
2022/11/04 12:36:13;;;;;;;5.47;1.42;;;10.10;99.90;;;;;;5063811;28;20436;-82
2022/11/04 12:39:14;;;;;;;10.07;1.00;;;10.00;99.90;;;;;;5053296;28;20051;-81
2022/11/04 12:41:58;;;;;;;3.13;0.90;;;9.90;99.90;;;;;;5007768;28;20211;-82
2022/11/04 12:44:33;;;;;;;3.30;0.70;;;9.90;99.90;;;;;;5033218;28;20053;-80
2022/11/04 12:47:36;;;;;;;4.78;1.00;;;9.90;99.90;;;;;;5045087;28;21275;-81
2022/11/04 12:50:08;;;;;;;3.90;0.90;;;9.80;99.90;;;;;;5028509;28;20053;-83
2022/11/04 12:52:56;;;;;;;2.10;0.75;;;9.80;99.90;;;;;;5038110;28;20049;-81
2022/11/04 12:55:39;;;;;;;2.15;0.60;;;9.80;99.90;;;;;;5046856;28;20099;-82
2022/11/04 12:58:20;;;;;;;6.20;0.95;;;9.80;99.90;;;;;;5042019;28;20049;-81
2022/11/04 13:00:53;;;;;;;3.25;0.80;;;9.70;99.90;;;;;;5065390;28;20045;-80
2022/11/04 13:03:41;;;;;;;7.82;1.33;;;9.70;99.90;;;;;;5048822;28;20037;-81
2022/11/04 13:06:27;;;;;;;3.92;0.85;;;9.70;99.90;;;;;;5063233;28;20502;-81
2022/11/04 13:09:13;;;;;;;4.32;0.75;;;9.80;99.90;;;;;;5062633;28;20513;-82
2022/11/04 13:11:54;;;;;;;5.75;0.90;;;9.80;99.90;;;;;;5018920;28;20053;-81
2022/11/04 13:14:29;;;;;;;2.97;0.70;;;9.70;99.90;;;;;;5035659;28;20407;-81
2022/11/04 13:17:03;;;;;;;5.03;1.42;;;9.70;99.90;;;;;;5033489;28;20132;-81
2022/11/04 13:19:49;;;;;;;4.22;1.13;;;9.70;99.90;;;;;;5055078;28;20052;-81
2022/11/04 13:22:22;;;;;;;3.20;0.90;;;9.80;99.90;;;;;;5064379;28;20060;-81
2022/11/04 13:25:11;;;;;;;2.83;0.90;;;9.90;99.90;;;;;;5022913;28;20106;-81
2022/11/04 13:27:43;;;;;;;7.57;1.00;;;9.90;99.90;;;;;;5028003;28;20882;-83
2022/11/04 13:30:40;;;;;;;3.78;0.90;;;9.90;99.90;;;;;;5028011;28;20037;-81
2022/11/04 13:33:46;;;;;;;4.72;1.50;;;9.90;99.90;;;;;;5034455;28;20042;-80
2022/11/04 13:36:24;;;;;;;5.03;1.70;;;10.00;99.90;;;;;;5053971;28;20498;-84
2022/11/04 13:38:56;;;;;;;4.47;1.50;;;10.00;99.90;;;;;;5033909;28;20053;-81
2022/11/04 13:41:55;;;;;;;5.53;1.70;;;9.90;99.90;;;;;;5060858;28;20052;-82
2022/11/04 13:44:25;;;;;;;6.65;1.65;;;10.00;99.90;;;;;;5038105;28;20135;-81
2022/11/04 13:46:57;;;;;;;4.30;1.42;;;9.90;99.90;;;;;;5034974;28;20056;-81
2022/11/04 13:49:29;;;;;;;4.05;1.40;;;10.20;99.90;;;;;;5034565;28;20045;-81
2022/11/04 13:52:02;;;;;;;6.68;1.95;;;10.40;99.90;;;;;;5064264;28;20037;-81
2022/11/04 13:54:38;;;;;;;4.55;1.05;;;10.50;99.90;;;;;;5034483;28;20053;-81
2022/11/04 13:57:13;;;;;;;4.82;1.55;;;10.70;99.90;;;;;;5030003;28;20081;-86